createdAt,value
2023-01-25T00:00:51.187Z,5.20
2023-01-25T00:03:18.138Z,5.20
2023-01-25T00:05:45.019Z,5.20
2023-01-25T00:08:11.883Z,5.10
2023-01-25T00:10:38.712Z,5.10
2023-01-25T00:13:05.537Z,5.20
2023-01-25T00:15:32.410Z,5.10
2023-01-25T00:17:59.208Z,5.20
2023-01-25T00:20:26.683Z,5.20
2023-01-25T00:22:53.486Z,5.20
2023-01-25T00:25:20.271Z,5.20
2023-01-25T00:27:47.080Z,5.20
2023-01-25T00:30:14.195Z,5.20
2023-01-25T00:33:35.678Z,5.20
2023-01-25T00:36:02.590Z,5.20
2023-01-25T00:38:34.926Z,5.30
2023-01-25T00:41:01.826Z,5.20
2023-01-25T00:43:28.616Z,5.20
2023-01-25T00:46:02.013Z,5.20
2023-01-25T00:48:28.901Z,5.10
2023-01-25T00:51:00.886Z,5.10
2023-01-25T00:53:27.811Z,5.10
2023-01-25T00:55:54.876Z,5.10
2023-01-25T00:58:21.697Z,5.10
2023-01-25T01:00:48.581Z,5.10
2023-01-25T01:03:16.464Z,5.10
2023-01-25T01:05:43.302Z,5.10
2023-01-25T01:08:16.003Z,5.10
2023-01-25T01:10:42.770Z,5.20
2023-01-25T01:13:10.142Z,5.10
2023-01-25T01:15:37.620Z,5.10
2023-01-25T01:18:04.472Z,5.10
2023-01-25T01:20:31.440Z,5.10
2023-01-25T01:22:58.322Z,5.10
2023-01-25T01:25:25.241Z,5.10
2023-01-25T01:27:52.035Z,5.10
2023-01-25T01:30:19.020Z,5.10
2023-01-25T01:32:45.899Z,5.10
2023-01-25T01:35:12.781Z,5.10
2023-01-25T01:37:43.033Z,5.00
2023-01-25T01:40:16.364Z,5.00
2023-01-25T01:43:06.203Z,5.00
2023-01-25T01:45:50.597Z,5.00
2023-01-25T01:48:24.959Z,5.00
2023-01-25T01:50:57.645Z,5.00
2023-01-25T01:53:26.576Z,5.00
2023-01-25T01:55:59.216Z,5.00
2023-01-25T01:58:27.191Z,4.90
2023-01-25T02:00:54.379Z,4.90
2023-01-25T02:03:22.134Z,4.90
2023-01-25T02:06:35.289Z,4.90
2023-01-25T02:09:03.049Z,4.90
2023-01-25T02:11:32.741Z,4.90
2023-01-25T02:14:01.702Z,4.90
2023-01-25T02:16:29.377Z,4.90
2023-01-25T02:19:02.189Z,4.90
2023-01-25T02:21:40.844Z,4.90
2023-01-25T02:24:29.613Z,4.90
2023-01-25T02:26:56.980Z,5.00
2023-01-25T02:29:27.569Z,4.80
2023-01-25T02:32:04.695Z,4.80
2023-01-25T02:34:31.702Z,4.80
2023-01-25T02:36:59.810Z,4.80
2023-01-25T02:39:28.673Z,4.80
2023-01-25T02:41:55.547Z,4.80
2023-01-25T02:44:28.828Z,4.70
2023-01-25T02:46:56.005Z,4.80
2023-01-25T02:49:22.942Z,4.80
2023-01-25T02:52:00.231Z,4.80
2023-01-25T02:54:27.552Z,4.80
2023-01-25T02:56:54.972Z,4.90
2023-01-25T02:59:22.075Z,4.90
2023-01-25T03:01:50.135Z,4.90
2023-01-25T03:04:17.006Z,4.90
2023-01-25T03:06:43.885Z,4.90
2023-01-25T03:09:11.854Z,5.00
2023-01-25T03:11:38.790Z,4.90
2023-01-25T03:14:05.642Z,4.90
2023-01-25T03:16:32.734Z,4.90
2023-01-25T03:18:59.936Z,4.90
2023-01-25T03:21:27.233Z,4.90
2023-01-25T03:24:02.250Z,4.90
2023-01-25T03:26:29.720Z,4.90
2023-01-25T03:28:57.073Z,4.90
2023-01-25T03:31:24.857Z,4.90
2023-01-25T03:33:52.069Z,5.00
2023-01-25T03:36:19.104Z,5.00
2023-01-25T03:38:46.106Z,4.90
2023-01-25T03:41:13.980Z,5.00
2023-01-25T03:43:40.890Z,5.00
2023-01-25T03:46:07.830Z,5.00
2023-01-25T03:48:34.769Z,5.00
2023-01-25T03:51:01.687Z,5.00
2023-01-25T03:53:30.846Z,4.90
2023-01-25T03:56:07.218Z,5.00
2023-01-25T03:58:35.846Z,5.00
2023-01-25T04:01:05.160Z,5.00
2023-01-25T04:03:32.955Z,4.90
2023-01-25T04:06:00.350Z,4.90
2023-01-25T04:08:27.607Z,4.90
2023-01-25T04:11:08.273Z,4.90
2023-01-25T04:13:36.773Z,4.90
2023-01-25T04:16:11.766Z,4.80
2023-01-25T04:18:40.689Z,4.80
2023-01-25T04:21:08.106Z,4.80
2023-01-25T04:23:34.962Z,4.90
2023-01-25T04:26:05.843Z,4.80
2023-01-25T04:28:34.753Z,4.80
2023-01-25T04:31:03.625Z,4.80
2023-01-25T04:33:30.548Z,4.80
2023-01-25T04:35:58.126Z,4.80
2023-01-25T04:38:25.529Z,4.80
2023-01-25T04:40:52.804Z,4.80
2023-01-25T04:43:20.756Z,4.80
2023-01-25T04:45:48.149Z,4.80
2023-01-25T04:48:15.373Z,4.80
2023-01-25T04:50:43.578Z,4.90
2023-01-25T04:53:12.143Z,4.80
2023-01-25T04:55:39.191Z,4.90
2023-01-25T04:58:06.851Z,4.80
2023-01-25T05:00:33.756Z,4.80
2023-01-25T05:03:00.638Z,4.80
2023-01-25T05:05:27.850Z,4.80
2023-01-25T05:07:54.708Z,4.80
2023-01-25T05:10:21.787Z,4.80
2023-01-25T05:12:48.693Z,4.80
2023-01-25T05:15:15.691Z,4.80
2023-01-25T05:17:42.513Z,4.70
2023-01-25T05:20:10.501Z,4.70
2023-01-25T05:22:37.322Z,4.70
2023-01-25T05:25:06.301Z,4.70
2023-01-25T05:27:33.189Z,4.60
2023-01-25T05:30:00.107Z,4.60
2023-01-25T05:32:26.992Z,4.60
2023-01-25T05:34:53.914Z,4.50
2023-01-25T05:37:21.995Z,4.50
2023-01-25T05:39:48.899Z,4.40
2023-01-25T05:42:18.576Z,4.40
2023-01-25T05:44:47.571Z,4.40
2023-01-25T05:47:17.699Z,4.40
2023-01-25T05:49:45.035Z,4.40
2023-01-25T05:52:17.228Z,4.40
2023-01-25T05:54:44.116Z,4.40
2023-01-25T05:57:11.354Z,4.40
2023-01-25T05:59:38.197Z,4.40
2023-01-25T06:02:05.050Z,4.40
2023-01-25T06:04:31.953Z,4.40
2023-01-25T06:06:58.772Z,4.40
2023-01-25T06:09:27.005Z,4.30
2023-01-25T06:11:53.849Z,4.30
2023-01-25T06:14:20.681Z,4.30
2023-01-25T06:16:47.460Z,4.30
2023-01-25T06:19:14.462Z,4.30
2023-01-25T06:21:41.469Z,4.20
2023-01-25T06:24:08.675Z,4.30
2023-01-25T06:26:38.199Z,4.20
2023-01-25T06:29:06.889Z,4.20
2023-01-25T06:31:34.813Z,4.20
2023-01-25T06:34:04.490Z,4.20
2023-01-25T06:36:31.506Z,4.20
2023-01-25T06:38:58.345Z,4.20
2023-01-25T06:41:25.458Z,4.20
2023-01-25T06:43:53.177Z,4.20
2023-01-25T06:46:20.600Z,4.20
2023-01-25T06:48:48.009Z,4.20
2023-01-25T06:51:15.998Z,4.30
2023-01-25T06:53:45.651Z,4.30
2023-01-25T06:56:17.689Z,4.30
2023-01-25T06:58:46.201Z,4.40
2023-01-25T07:01:20.260Z,4.40
2023-01-25T07:03:56.630Z,4.40
2023-01-25T07:06:25.271Z,4.40
2023-01-25T07:08:52.462Z,4.40
2023-01-25T07:11:19.505Z,4.40
2023-01-25T07:13:48.131Z,4.40
2023-01-25T07:16:20.330Z,4.50
2023-01-25T07:18:47.878Z,4.40
2023-01-25T07:21:20.508Z,4.50
2023-01-25T07:23:49.036Z,4.50
2023-01-25T07:26:23.437Z,4.60
2023-01-25T07:28:51.056Z,4.50
2023-01-25T07:31:20.013Z,4.50
2023-01-25T07:33:52.334Z,4.50
2023-01-25T07:36:19.941Z,4.50
2023-01-25T07:38:47.983Z,4.50
2023-01-25T07:41:16.390Z,4.50
2023-01-25T07:43:43.531Z,4.50
2023-01-25T07:46:13.632Z,4.50
2023-01-25T07:48:46.609Z,4.50
2023-01-25T07:51:24.077Z,4.50
2023-01-25T07:53:57.317Z,4.40
2023-01-25T07:56:28.284Z,4.40
2023-01-25T07:59:00.560Z,4.40
2023-01-25T08:01:29.598Z,4.40
2023-01-25T08:03:57.493Z,4.40
2023-01-25T08:06:35.820Z,4.40
2023-01-25T08:09:12.048Z,4.50
2023-01-25T08:11:38.907Z,4.50
2023-01-25T08:14:05.772Z,4.50
2023-01-25T08:16:33.086Z,4.50
2023-01-25T08:19:03.259Z,4.60
2023-01-25T08:21:33.766Z,4.50
2023-01-25T08:24:04.103Z,4.60
2023-01-25T08:26:31.469Z,4.60
2023-01-25T08:28:58.824Z,4.60
2023-01-25T08:31:31.932Z,4.60
2023-01-25T08:34:00.602Z,4.60
2023-01-25T08:36:28.291Z,4.70
2023-01-25T08:39:05.776Z,4.70
2023-01-25T08:41:34.896Z,4.70
2023-01-25T08:44:01.889Z,4.70
2023-01-25T08:46:33.218Z,4.70
2023-01-25T08:49:02.239Z,4.70
2023-01-25T08:51:31.791Z,4.70
2023-01-25T08:54:12.820Z,4.70
2023-01-25T08:56:41.302Z,4.70
2023-01-25T08:59:12.669Z,4.70
2023-01-25T09:01:42.999Z,4.70
2023-01-25T09:04:09.870Z,4.70
2023-01-25T09:06:36.834Z,4.70
2023-01-25T09:09:04.732Z,4.70
2023-01-25T09:11:37.175Z,4.70
2023-01-25T09:14:05.086Z,4.80
2023-01-25T09:16:31.951Z,4.80
2023-01-25T09:19:01.973Z,4.80
2023-01-25T09:21:29.915Z,4.80
2023-01-25T09:24:06.121Z,4.80
2023-01-25T09:26:36.711Z,4.90
2023-01-25T09:29:03.976Z,4.90
2023-01-25T09:31:31.072Z,4.90
2023-01-25T09:33:58.450Z,4.90
2023-01-25T09:36:25.502Z,4.90
2023-01-25T09:38:52.961Z,4.90
2023-01-25T09:41:40.981Z,4.90
2023-01-25T09:45:01.614Z,4.80
2023-01-25T09:47:59.611Z,4.80
2023-01-25T09:50:37.309Z,4.80
2023-01-25T09:53:29.248Z,4.80
2023-01-25T09:56:19.693Z,4.80
2023-01-25T09:58:52.143Z,4.80
2023-01-25T10:01:39.369Z,5.00
2023-01-25T10:04:37.219Z,4.90
2023-01-25T10:07:30.959Z,4.90
2023-01-25T10:10:07.438Z,4.90
2023-01-25T10:12:38.436Z,5.00
2023-01-25T10:15:25.766Z,5.00
2023-01-25T10:18:30.026Z,5.00
2023-01-25T10:21:17.451Z,5.00
2023-01-25T10:24:34.549Z,5.00
2023-01-25T10:27:43.425Z,4.90
2023-01-25T10:30:30.450Z,5.00
2023-01-25T10:33:19.937Z,4.90
2023-01-25T10:35:49.896Z,4.90
2023-01-25T10:38:28.104Z,4.90
2023-01-25T10:41:26.974Z,5.00
2023-01-25T10:44:13.866Z,4.90
2023-01-25T10:46:47.336Z,5.00
2023-01-25T10:49:43.102Z,5.00
2023-01-25T10:52:27.477Z,5.00
2023-01-25T10:55:18.546Z,5.00
2023-01-25T10:57:50.932Z,5.10
2023-01-25T11:00:40.968Z,5.10
2023-01-25T11:03:21.906Z,5.10
2023-01-25T11:05:56.398Z,5.10
2023-01-25T11:08:34.726Z,5.20
2023-01-25T11:11:40.565Z,5.20
2023-01-25T11:14:17.855Z,5.20
2023-01-25T11:16:48.269Z,5.20
2023-01-25T11:19:34.537Z,5.20
2023-01-25T11:22:20.459Z,5.20
2023-01-25T11:24:47.816Z,5.20
2023-01-25T11:27:28.355Z,5.20
2023-01-25T11:30:17.233Z,5.30
2023-01-25T11:32:44.317Z,5.30
2023-01-25T11:35:31.924Z,5.30
2023-01-25T11:38:15.350Z,5.40
2023-01-25T11:41:26.862Z,5.40
2023-01-25T11:44:33.230Z,5.40
2023-01-25T11:47:11.191Z,5.40
2023-01-25T11:50:05.078Z,5.50
2023-01-25T11:52:45.489Z,5.50
2023-01-25T11:56:01.431Z,5.50
2023-01-25T11:59:08.463Z,5.50
2023-01-25T12:02:18.950Z,5.50
2023-01-25T12:05:21.513Z,5.50
2023-01-25T12:08:32.962Z,5.50
2023-01-25T12:11:18.288Z,5.50
2023-01-25T12:14:10.825Z,5.60
2023-01-25T12:17:02.820Z,5.50
2023-01-25T12:19:46.660Z,5.50
2023-01-25T12:22:34.721Z,5.50
2023-01-25T12:26:03.683Z,5.50
2023-01-25T12:28:43.171Z,5.50
2023-01-25T12:31:39.607Z,5.60
2023-01-25T12:34:21.502Z,5.60
2023-01-25T12:36:50.472Z,5.50
2023-01-25T12:39:24.475Z,5.60
2023-01-25T12:42:22.682Z,5.60
2023-01-25T12:45:14.322Z,5.50
2023-01-25T12:47:50.934Z,5.50
2023-01-25T12:50:30.713Z,5.50
2023-01-25T12:53:48.294Z,5.40
2023-01-25T12:57:03.947Z,5.50
2023-01-25T12:59:55.501Z,5.40
2023-01-25T13:02:40.894Z,5.40
2023-01-25T13:05:39.557Z,5.40
2023-01-25T13:08:30.045Z,5.30
2023-01-25T13:11:39.700Z,5.30
2023-01-25T13:14:40.618Z,5.30
2023-01-25T13:17:34.788Z,5.30
2023-01-25T13:20:38.722Z,5.30
2023-01-25T13:23:34.429Z,5.20
2023-01-25T13:26:26.216Z,5.20
2023-01-25T13:28:59.598Z,5.20
2023-01-25T13:31:51.158Z,5.10
2023-01-25T13:34:39.606Z,5.10
2023-01-25T13:37:23.651Z,5.10
2023-01-25T13:40:25.669Z,5.10
2023-01-25T13:43:06.520Z,5.20
2023-01-25T13:45:36.075Z,5.10
2023-01-25T13:48:12.940Z,5.20
2023-01-25T13:50:53.978Z,5.20
2023-01-25T13:53:24.780Z,5.20
2023-01-25T13:55:54.417Z,5.10
2023-01-25T13:58:25.781Z,5.20
2023-01-25T14:01:19.703Z,5.10
2023-01-25T14:04:01.931Z,5.10
2023-01-25T14:06:39.459Z,5.10
2023-01-25T14:09:17.212Z,5.10
2023-01-25T14:11:51.647Z,5.10
2023-01-25T14:14:33.496Z,5.10
2023-01-25T14:17:18.741Z,5.00
2023-01-25T14:19:53.742Z,4.90
2023-01-25T14:22:28.707Z,4.90
2023-01-25T14:25:19.337Z,4.80
2023-01-25T14:27:53.985Z,4.80
2023-01-25T14:30:28.977Z,4.80
2023-01-25T14:33:00.710Z,4.70
2023-01-25T14:35:43.097Z,4.70
2023-01-25T14:38:25.927Z,4.60
2023-01-25T14:41:15.947Z,4.60
2023-01-25T14:43:48.566Z,4.50
2023-01-25T14:46:38.018Z,4.50
2023-01-25T14:49:14.410Z,4.50
2023-01-25T14:51:50.544Z,4.40
2023-01-25T14:54:25.397Z,4.40
2023-01-25T14:57:00.640Z,4.40
2023-01-25T14:59:32.539Z,4.40
2023-01-25T15:02:17.152Z,4.40
2023-01-25T15:05:30.261Z,4.40
2023-01-25T15:08:14.047Z,4.50
2023-01-25T15:10:56.784Z,4.50
2023-01-25T15:13:27.128Z,4.50
2023-01-25T15:15:59.911Z,4.50
2023-01-25T15:18:48.675Z,4.40
2023-01-25T15:21:23.205Z,4.40
2023-01-25T15:23:51.334Z,4.40
2023-01-25T15:26:30.953Z,4.40
2023-01-25T15:29:01.550Z,4.40
2023-01-25T15:31:32.721Z,4.40
2023-01-25T15:34:01.521Z,4.40
2023-01-25T15:36:33.589Z,4.40
2023-01-25T15:39:00.630Z,4.40
2023-01-25T15:41:27.482Z,4.40
2023-01-25T15:43:54.407Z,4.40
2023-01-25T15:46:27.725Z,4.40
2023-01-25T15:48:55.129Z,4.40
2023-01-25T15:51:22.282Z,4.40
2023-01-25T15:53:49.318Z,4.50
2023-01-25T15:56:27.686Z,4.50
2023-01-25T15:59:00.122Z,4.50
2023-01-25T16:01:30.601Z,4.50
2023-01-25T16:03:59.646Z,4.50
2023-01-25T16:06:51.078Z,4.60
2023-01-25T16:09:29.401Z,4.50
2023-01-25T16:11:59.857Z,4.60
2023-01-25T16:14:30.287Z,4.50
2023-01-25T16:17:03.062Z,4.50
2023-01-25T16:19:31.272Z,4.60
2023-01-25T16:21:58.968Z,4.50
2023-01-25T16:24:25.943Z,4.60
2023-01-25T16:26:56.667Z,4.60
2023-01-25T16:29:23.962Z,4.60
2023-01-25T16:31:52.613Z,4.60
2023-01-25T16:34:21.043Z,4.60
2023-01-25T16:36:52.797Z,4.60
2023-01-25T16:39:26.393Z,4.60
2023-01-25T16:41:53.569Z,4.60
2023-01-25T16:44:20.400Z,4.70
2023-01-25T16:46:51.070Z,4.70
2023-01-25T16:49:27.610Z,4.70
2023-01-25T16:51:55.866Z,4.70
2023-01-25T16:54:24.451Z,4.70
2023-01-25T16:56:53.107Z,4.70
2023-01-25T16:59:22.302Z,4.70
2023-01-25T17:01:49.213Z,4.70
2023-01-25T17:04:16.456Z,4.70
2023-01-25T17:06:49.984Z,4.70
2023-01-25T17:09:24.013Z,4.70
2023-01-25T17:11:51.921Z,4.70
2023-01-25T17:14:20.262Z,4.70
2023-01-25T17:16:51.311Z,4.70
2023-01-25T17:19:19.937Z,4.70
2023-01-25T17:21:47.163Z,4.70
2023-01-25T17:24:17.272Z,4.70
2023-01-25T17:26:44.904Z,4.70
2023-01-25T17:29:13.677Z,4.70
2023-01-25T17:31:42.081Z,4.60
2023-01-25T17:34:18.103Z,4.60
2023-01-25T17:36:46.302Z,4.60
2023-01-25T17:39:15.921Z,4.60
2023-01-25T17:41:44.636Z,4.60
2023-01-25T17:44:12.298Z,4.60
2023-01-25T17:46:39.488Z,4.50
2023-01-25T17:49:11.966Z,4.50
2023-01-25T17:51:39.148Z,4.50
2023-01-25T17:54:06.812Z,4.50
2023-01-25T17:56:34.148Z,4.40
2023-01-25T17:59:02.133Z,4.40
2023-01-25T18:01:32.077Z,4.30
2023-01-25T18:04:00.655Z,4.30
2023-01-25T18:06:31.039Z,4.30
2023-01-25T18:09:01.713Z,4.30
2023-01-25T18:11:32.333Z,4.40
2023-01-25T18:14:08.186Z,4.40
2023-01-25T18:16:38.914Z,4.30
2023-01-25T18:19:06.574Z,4.40
2023-01-25T18:21:35.379Z,4.40
2023-01-25T18:24:24.907Z,4.40
2023-01-25T18:26:55.028Z,4.40
2023-01-25T18:29:47.718Z,4.30
2023-01-25T18:32:15.927Z,4.40
2023-01-25T18:34:42.786Z,4.40
2023-01-25T18:37:20.588Z,4.40
2023-01-25T18:39:55.765Z,4.40
2023-01-25T18:42:26.280Z,4.40
2023-01-25T18:44:53.224Z,4.40
2023-01-25T18:47:22.892Z,4.50
2023-01-25T18:49:51.810Z,4.40
2023-01-25T18:52:22.618Z,4.40
2023-01-25T18:54:49.420Z,4.50
2023-01-25T18:57:17.461Z,4.40
2023-01-25T18:59:44.454Z,4.40
2023-01-25T19:02:16.885Z,4.40
2023-01-25T19:04:44.285Z,4.40
2023-01-25T19:07:12.533Z,4.40
2023-01-25T19:09:39.505Z,4.30
2023-01-25T19:12:06.763Z,4.40
2023-01-25T19:14:33.651Z,4.30
2023-01-25T19:17:00.538Z,4.20
2023-01-25T19:19:32.099Z,4.20
2023-01-25T19:22:00.327Z,4.20
2023-01-25T19:24:27.746Z,4.10
2023-01-25T19:26:54.814Z,4.20
2023-01-25T19:29:21.707Z,4.10
2023-01-25T19:31:48.659Z,4.10
2023-01-25T19:34:15.544Z,4.10
2023-01-25T19:36:53.651Z,4.10
2023-01-25T19:39:21.084Z,4.20
2023-01-25T19:41:48.028Z,4.20
2023-01-25T19:44:15.259Z,4.20
2023-01-25T19:46:42.966Z,4.30
2023-01-25T19:49:13.142Z,4.30
2023-01-25T19:51:44.372Z,4.30
2023-01-25T19:54:17.133Z,4.40
2023-01-25T19:56:47.929Z,4.40
2023-01-25T19:59:17.525Z,4.40
2023-01-25T20:01:46.231Z,4.50
2023-01-25T20:04:17.569Z,4.40
2023-01-25T20:06:44.494Z,4.30
2023-01-25T20:09:17.430Z,4.30
2023-01-25T20:11:45.563Z,4.30
2023-01-25T20:14:13.702Z,4.30
2023-01-25T20:16:41.058Z,4.30
2023-01-25T20:19:11.861Z,4.20
2023-01-25T20:21:39.635Z,4.30
2023-01-25T20:24:09.772Z,4.20
2023-01-25T20:26:39.672Z,4.20
2023-01-25T20:29:07.623Z,4.10
2023-01-25T20:31:38.355Z,4.10
2023-01-25T20:34:13.514Z,4.10
2023-01-25T20:36:41.508Z,4.10
2023-01-25T20:39:10.862Z,4.10
2023-01-25T20:41:37.694Z,4.10
2023-01-25T20:44:08.447Z,4.10
2023-01-25T20:46:38.602Z,4.10
2023-01-25T20:49:09.142Z,4.10
2023-01-25T20:51:36.491Z,4.20
2023-01-25T20:54:03.595Z,4.10
2023-01-25T20:56:31.684Z,4.10
2023-01-25T20:58:58.778Z,4.10
2023-01-25T21:01:36.515Z,4.10
2023-01-25T21:04:07.062Z,4.10
2023-01-25T21:06:37.552Z,4.10
2023-01-25T21:09:05.211Z,4.10
2023-01-25T21:11:34.559Z,4.10
2023-01-25T21:14:01.399Z,4.00
2023-01-25T21:16:28.545Z,4.00
2023-01-25T21:18:58.728Z,4.00
2023-01-25T21:21:29.210Z,4.00
2023-01-25T21:23:59.863Z,4.00
2023-01-25T21:26:32.662Z,4.10
2023-01-25T21:29:01.741Z,4.10
2023-01-25T21:31:32.916Z,4.20
2023-01-25T21:34:00.482Z,4.20
2023-01-25T21:36:28.195Z,4.20
2023-01-25T21:38:56.573Z,4.20
2023-01-25T21:41:29.051Z,4.20
2023-01-25T21:44:17.393Z,4.30
2023-01-25T21:47:04.211Z,4.20
2023-01-25T21:49:50.603Z,4.20
2023-01-25T21:52:17.492Z,4.20
2023-01-25T21:54:44.487Z,4.20
2023-01-25T21:57:11.700Z,4.20
2023-01-25T21:59:40.821Z,4.30
2023-01-25T22:02:13.878Z,4.30
2023-01-25T22:04:40.931Z,4.30
2023-01-25T22:07:09.482Z,4.30
2023-01-25T22:09:36.606Z,4.30
2023-01-25T22:12:03.791Z,4.30
2023-01-25T22:14:30.654Z,4.40
2023-01-25T22:16:58.067Z,4.30
2023-01-25T22:19:25.047Z,4.30
2023-01-25T22:21:51.943Z,4.30
2023-01-25T22:24:19.229Z,4.30
2023-01-25T22:26:48.884Z,4.30
2023-01-25T22:29:16.265Z,4.30
2023-01-25T22:31:43.946Z,4.30
2023-01-25T22:34:10.973Z,4.20
2023-01-25T22:36:38.363Z,4.20
2023-01-25T22:39:05.373Z,4.20
2023-01-25T22:41:35.796Z,4.30
2023-01-25T22:44:03.194Z,4.20
2023-01-25T22:46:30.581Z,4.20
2023-01-25T22:49:01.448Z,4.30
2023-01-25T22:51:30.392Z,4.30
2023-01-25T22:53:59.568Z,4.30
2023-01-25T22:56:31.804Z,4.30
2023-01-25T22:59:00.603Z,4.30
2023-01-25T23:01:35.223Z,4.30
2023-01-25T23:04:03.946Z,4.30
2023-01-25T23:06:34.327Z,4.30
2023-01-25T23:09:06.007Z,4.30
2023-01-25T23:11:37.352Z,4.40
2023-01-25T23:14:26.194Z,4.30
2023-01-25T23:17:13.468Z,4.40
2023-01-25T23:19:40.333Z,4.40
2023-01-25T23:22:07.228Z,4.40
2023-01-25T23:24:34.062Z,4.40
2023-01-25T23:27:00.930Z,4.40
2023-01-25T23:29:27.817Z,4.40
2023-01-25T23:31:54.615Z,4.40
2023-01-25T23:34:21.498Z,4.40
2023-01-25T23:36:48.317Z,4.40
2023-01-25T23:39:15.125Z,4.40
2023-01-25T23:41:41.936Z,4.40
2023-01-25T23:44:09.806Z,4.40
2023-01-25T23:46:37.124Z,4.40
2023-01-25T23:49:04.046Z,4.40
2023-01-25T23:51:30.883Z,4.40
2023-01-25T23:53:58.372Z,4.40
2023-01-25T23:56:25.644Z,4.40
2023-01-25T23:58:52.483Z,4.40
